»·PEaware :: N615LG KGCN-KHII

N615LG :: KGCN-KHII

FLIGHT INFORMATION

Flight Status: Arrived
Operator: Privately registered:
United States
More flights under this callsign
Pilot: Jordan O. (2051)
Aircraft: BEECH AIRCRAFT A90-E90 KING AIR
(BE9L)
More flights by this aircraft type
Origin: KGCN Grand Canyon Natl Park
United States
Destination: KHII Lake Havasu City
United States
More flights between these airports :: More routes between these airports
Route: GRAND4 BISOP MEMPE TASGE
File this flight plan on PilotEdge
Remarks:
Altitude:
(Current/Filed)
14,000ft
Speed:
(Current/Filed)
180kts
Departed: 20-Sep-21 08:34 PM
Arrived: 20-Sep-21 09:25 PM
Distance/Time
Traveled:
137nm/0:51
Distance/Time
To Go:
Arrived

Flight Plot

Page will automatically refresh every two minutes.

Flight plan parsing failed; only flown route is shown


Map Options




Map Legend


Flown Route
Filed Route
Departure Airport
Arrival Airport
Navaid (VOR, NDB)
Fix

Horizontal Profiles

Position Reports

Time Latitude Longitude Heading Altitude Ground
Speed
20-Sep-21 19:52 35.960397 -112.135665 130 6631ft 0kts
20-Sep-21 19:53 35.960397 -112.135665 130 6631ft 0kts
20-Sep-21 19:54 35.960397 -112.135665 130 6631ft 0kts
20-Sep-21 19:55 35.960397 -112.135665 130 6631ft 0kts
20-Sep-21 19:56 35.960397 -112.135665 130 6631ft 0kts
20-Sep-21 19:57 35.960397 -112.135665 130 6631ft 0kts
20-Sep-21 19:58 35.960397 -112.135665 130 6631ft 0kts
20-Sep-21 19:59 35.960397 -112.135665 130 6631ft 0kts
20-Sep-21 20:00 35.960397 -112.135665 130 6631ft 0kts
20-Sep-21 20:01 35.960397 -112.135665 130 6631ft 0kts
20-Sep-21 20:02 35.960397 -112.135665 130 6631ft 0kts
20-Sep-21 20:03 35.960397 -112.135665 130 6631ft 0kts
20-Sep-21 20:04 35.960397 -112.135665 130 6631ft 0kts
20-Sep-21 20:05 35.960397 -112.135665 130 6631ft 0kts
20-Sep-21 20:06 35.960397 -112.135665 130 6631ft 0kts
20-Sep-21 20:07 35.960397 -112.135665 130 6631ft 0kts
20-Sep-21 20:08 35.960390 -112.135645 106 6631ft 0kts
20-Sep-21 20:09 35.960633 -112.135764 301 6631ft 3kts
20-Sep-21 20:10 35.960976 -112.136265 312 6631ft 0kts
20-Sep-21 20:11 35.960976 -112.136265 311 6631ft 0kts
20-Sep-21 20:12 35.960976 -112.136265 311 6631ft 0kts
20-Sep-21 20:13 35.960397 -112.135665 130 6631ft 0kts
20-Sep-21 20:14 35.960397 -112.135666 130 6631ft 0kts
20-Sep-21 20:15 35.960050 -112.136027 130 6631ft 0kts
20-Sep-21 20:21 35.960050 -112.136027 130 6631ft 0kts
20-Sep-21 20:22 35.960050 -112.136027 130 6631ft 0kts
20-Sep-21 20:23 35.960050 -112.136027 129 6631ft 0kts
20-Sep-21 20:24 35.960050 -112.136027 130 6631ft 0kts
20-Sep-21 20:25 35.960050 -112.136027 130 6631ft 0kts
20-Sep-21 20:26 35.960050 -112.136027 130 6631ft 0kts
20-Sep-21 20:27 35.960050 -112.136027 130 6631ft 0kts
20-Sep-21 20:28 35.960050 -112.136027 130 6631ft 0kts
20-Sep-21 20:29 35.960205 -112.136162 299 6631ft 5kts
20-Sep-21 20:30 35.960973 -112.136296 332 6631ft 0kts
20-Sep-21 20:31 35.960973 -112.136296 332 6631ft 0kts
20-Sep-21 20:32 35.961315 -112.137437 229 6630ft 12kts
20-Sep-21 20:33 35.941596 -112.157835 219 6948ft 154kts
20-Sep-21 20:34 35.903900 -112.185273 199 8588ft 161kts
20-Sep-21 20:35 35.866312 -112.215326 216 10002ft 172kts
20-Sep-21 20:36 35.822181 -112.253946 216 10731ft 189kts
20-Sep-21 20:37 35.782036 -112.282895 210 12650ft 152kts
20-Sep-21 20:38 35.743962 -112.308502 210 13918ft 158kts
20-Sep-21 20:39 35.698564 -112.339048 210 14011ft 207kts
20-Sep-21 20:40 35.646027 -112.374751 210 13989ft 218kts
20-Sep-21 20:41 35.592645 -112.411049 210 13990ft 219kts
20-Sep-21 20:43 35.559649 -112.471731 241 13996ft 217kts
20-Sep-21 20:44 35.529806 -112.536295 241 13997ft 217kts
20-Sep-21 20:45 35.499672 -112.600799 241 13999ft 217kts
20-Sep-21 20:46 35.470171 -112.663789 240 14000ft 217kts
20-Sep-21 20:47 35.439884 -112.728336 240 14000ft 217kts
20-Sep-21 20:48 35.409688 -112.792566 240 14000ft 217kts
20-Sep-21 20:49 35.379342 -112.856986 241 13999ft 218kts
20-Sep-21 20:50 35.348794 -112.921724 241 13997ft 219kts
20-Sep-21 20:51 35.318066 -112.986719 241 13976ft 222kts
20-Sep-21 20:52 35.286780 -113.052773 241 13940ft 225kts
20-Sep-21 20:53 35.254964 -113.119811 241 13880ft 227kts
20-Sep-21 20:54 35.223189 -113.186632 241 13836ft 227kts
20-Sep-21 20:55 35.191397 -113.253360 241 13808ft 226kts
20-Sep-21 20:56 35.159658 -113.319846 241 13798ft 226kts
20-Sep-21 20:57 35.127834 -113.386383 241 13798ft 225kts
20-Sep-21 20:58 35.095909 -113.453003 241 13799ft 225kts
20-Sep-21 20:59 35.064172 -113.519106 241 13799ft 225kts
20-Sep-21 21:00 35.032323 -113.585315 241 13798ft 225kts
20-Sep-21 21:01 35.001023 -113.650259 241 13799ft 226kts
20-Sep-21 21:02 34.967738 -113.719208 240 13310ft 240kts
20-Sep-21 21:03 34.932190 -113.792708 240 12133ft 254kts
20-Sep-21 21:04 34.899827 -113.859406 240 12139ft 226kts
20-Sep-21 21:05 34.872647 -113.915376 240 11901ft 233kts
20-Sep-21 21:06 34.842662 -113.977025 239 10924ft 241kts
20-Sep-21 21:07 34.809242 -114.045577 240 9669ft 220kts
20-Sep-21 21:08 34.779485 -114.106499 240 8237ft 202kts
20-Sep-21 21:08 34.748424 -114.144708 185 7043ft 196kts
20-Sep-21 21:09 34.697858 -114.135424 168 7018ft 186kts
20-Sep-21 21:11 34.642677 -114.121656 168 7000ft 198kts
20-Sep-21 21:11 34.598089 -114.110527 168 6998ft 194kts
20-Sep-21 21:12 34.545805 -114.097491 168 6994ft 190kts
20-Sep-21 21:14 34.485792 -114.082551 168 6999ft 188kts
20-Sep-21 21:15 34.434912 -114.070476 181 6965ft 182kts
20-Sep-21 21:16 34.399790 -114.114653 240 6183ft 194kts
20-Sep-21 21:17 34.373589 -114.168745 241 5101ft 180kts
20-Sep-21 21:17 34.370155 -114.212183 313 4384ft 155kts
20-Sep-21 21:18 34.404548 -114.240609 330 3726ft 136kts
20-Sep-21 21:19 34.438038 -114.264224 330 3492ft 134kts
20-Sep-21 21:20 34.469767 -114.286610 330 2852ft 129kts
20-Sep-21 21:21 34.500379 -114.308232 330 2190ft 127kts
20-Sep-21 21:22 34.529031 -114.328481 330 1562ft 111kts
20-Sep-21 21:23 34.554236 -114.346450 329 942ft 100kts
20-Sep-21 21:24 34.572969 -114.359571 330 757ft 30kts
20-Sep-21 21:25 34.573522 -114.361313 150 751ft 0kts
20-Sep-21 21:26 34.569722 -114.358621 150 750ft 21kts
20-Sep-21 21:27 34.567387 -114.358970 113 741ft 1kts
20-Sep-21 21:28 34.567287 -114.358901 193 741ft 0kts
20-Sep-21 21:29 34.567287 -114.358901 193 741ft 0kts
20-Sep-21 21:30 34.567287 -114.358901 193 741ft 0kts
20-Sep-21 21:31 34.567287 -114.358901 193 741ft 0kts
20-Sep-21 21:32 34.567287 -114.358901 193 741ft 0kts
20-Sep-21 21:33 34.567287 -114.358901 193 741ft 0kts

Navigation Log

Ident Type
Flight plan parsing failed, navigation log unavailable